Time;durP1;ratioP1;P1;durP2;ratioP2;P2;SDS_P1;SDS_P2;PMS_P1;PMS_P2;Temp;Humidity;BMP_temperature;BMP_pressure;BME280_temperature;BME280_humidity;BME280_pressure;Samples;Min_cycle;Max_cycle;Signal;HPM_P1;HPM_P2
2022/01/28 00:02:32;;;;;;;15.00;2.60;;;;;;;4.43;83.54;100957.44;5016593;28;20037;-47
2022/01/28 00:04:55;;;;;;;12.93;2.50;;;;;;;4.35;84.11;100957.66;5015817;28;20265;-48
2022/01/28 00:07:20;;;;;;;11.98;2.45;;;;;;;4.42;83.65;100955.81;5016250;28;20256;-48
2022/01/28 00:09:46;;;;;;;10.25;2.50;;;;;;;4.39;83.95;100960.72;5018845;28;20185;-47
2022/01/28 00:12:13;;;;;;;13.30;3.03;;;;;;;4.44;83.69;100971.53;5017171;28;20029;-47
2022/01/28 00:38:49;;;;;;;8.30;1.80;;;;;;;4.67;80.83;101010.94;5017580;28;20305;-47
2022/01/28 00:41:15;;;;;;;15.60;2.55;;;;;;;4.71;80.53;101013.00;5014309;28;20025;-48
2022/01/28 00:43:41;;;;;;;20.02;2.38;;;;;;;4.77;79.88;101006.06;5014650;28;20602;-47
2022/01/28 00:46:07;;;;;;;16.05;2.35;;;;;;;4.83;79.51;101021.16;5017400;28;20040;-47
2022/01/28 00:48:33;;;;;;;10.93;2.20;;;;;;;4.81;79.38;101020.56;5012513;28;20029;-47
2022/01/28 00:50:58;;;;;;;13.10;2.60;;;;;;;4.87;79.00;101037.53;5014473;28;20038;-48
2022/01/28 00:53:24;;;;;;;8.98;1.70;;;;;;;4.90;78.53;101037.94;5016164;28;20033;-48
2022/01/28 00:55:49;;;;;;;12.68;2.53;;;;;;;4.93;78.56;101026.91;5022507;28;20048;-47
2022/01/28 00:58:15;;;;;;;15.73;2.90;;;;;;;4.95;77.47;101037.31;5016364;28;20087;-48
2022/01/28 01:00:41;;;;;;;7.80;1.92;;;;;;;4.97;77.59;101049.38;5010787;28;20079;-47
2022/01/28 01:03:07;;;;;;;13.60;2.80;;;;;;;4.99;77.12;101052.63;5015890;28;20041;-48
2022/01/28 01:05:34;;;;;;;12.40;2.10;;;;;;;4.96;77.03;101053.03;5014011;28;20096;-48
2022/01/28 01:08:04;;;;;;;9.00;2.13;;;;;;;4.98;76.48;101066.94;5018147;28;20117;-47
2022/01/28 01:10:30;;;;;;;19.95;3.90;;;;;;;5.05;76.13;101072.25;5019908;28;20036;-48
2022/01/28 01:12:55;;;;;;;18.40;3.28;;;;;;;4.98;75.28;101077.56;5039109;22;20030;-45
2022/01/28 01:15:25;;;;;;;16.02;2.20;;;;;;;5.02;74.79;101065.50;5010495;28;20045;-45
2022/01/28 01:18:01;;;;;;;9.88;2.17;;;;;;;5.00;74.21;101083.47;5013029;28;20406;-46
2022/01/28 01:23:22;;;;;;;19.08;2.90;;;;;;;5.09;73.94;101089.41;5014289;28;20088;-46
2022/01/28 01:25:51;;;;;;;13.82;2.28;;;;;;;5.12;73.78;101099.63;5018491;28;20075;-47
2022/01/28 01:28:20;;;;;;;9.68;1.60;;;;;;;5.16;73.77;101095.53;5021410;28;20088;-46
2022/01/28 01:30:47;;;;;;;17.63;2.50;;;;;;;5.15;73.22;101099.22;5018969;28;20032;-46
2022/01/28 01:33:12;;;;;;;12.40;1.92;;;;;;;5.19;73.12;101112.91;5021230;28;20112;-45
2022/01/28 01:35:39;;;;;;;8.70;2.50;;;;;;;5.18;72.65;101113.94;5019460;28;20120;-47
2022/01/28 01:38:08;;;;;;;18.45;2.33;;;;;;;5.16;72.27;101122.91;5021415;28;20053;-46
2022/01/28 01:40:42;;;;;;;18.00;2.85;;;;;;;5.21;72.32;101119.69;5020417;28;20632;-45
2022/01/28 01:43:17;;;;;;;11.95;2.03;;;;;;;5.23;72.25;101125.59;5021712;28;20056;-48
2022/01/28 01:53:36;;;;;;;6.95;2.25;;;;;;;5.24;71.53;101151.16;5018909;28;20048;-45
2022/01/28 01:56:02;;;;;;;13.18;2.40;;;;;;;5.27;71.77;101145.41;5020203;28;20108;-46
2022/01/28 01:58:31;;;;;;;11.38;1.60;;;;;;;5.18;71.09;101148.47;5018362;28;20076;-45
2022/01/28 02:01:00;;;;;;;15.38;2.42;;;;;;;5.19;70.79;101158.06;5015963;28;20510;-45
2022/01/28 02:03:28;;;;;;;16.27;2.70;;;;;;;5.21;71.53;101156.06;5019001;28;20298;-49
2022/01/28 02:05:58;;;;;;;12.70;2.40;;;;;;;5.20;71.11;101172.97;5019868;28;20447;-48
2022/01/28 02:08:29;;;;;;;17.55;2.92;;;;;;;5.24;70.90;101182.22;5019973;28;20029;-47
2022/01/28 02:10:58;;;;;;;14.05;2.55;;;;;;;5.23;71.28;101184.06;5019749;28;20026;-45
2022/01/28 02:13:26;;;;;;;19.67;2.90;;;;;;;5.26;70.61;101174.84;5017101;28;20317;-47
2022/01/28 02:15:53;;;;;;;12.00;2.60;;;;;;;5.22;70.85;101184.25;5018156;28;20079;-45
2022/01/28 02:18:20;;;;;;;15.30;2.50;;;;;;;5.18;70.75;101189.13;5016002;28;20029;-47
2022/01/28 02:20:49;;;;;;;25.92;3.80;;;;;;;5.23;71.12;101192.03;5021515;28;20033;-48
2022/01/28 02:23:14;;;;;;;10.48;2.03;;;;;;;5.12;69.97;101204.03;5013842;28;20041;-45
2022/01/28 02:25:40;;;;;;;10.77;3.05;;;;;;;5.20;70.70;101211.00;5024370;28;20029;-45
2022/01/28 02:28:08;;;;;;;9.65;2.00;;;;;;;5.20;70.17;101220.81;5022868;28;20044;-45
2022/01/28 02:30:34;;;;;;;8.50;1.92;;;;;;;5.16;70.30;101205.25;5024628;28;20022;-45
2022/01/28 02:33:20;;;;;;;17.17;2.67;;;;;;;5.23;70.72;101207.97;5021082;28;20048;-45
2022/01/28 02:35:48;;;;;;;16.42;2.58;;;;;;;5.23;70.13;101218.59;5018857;28;20018;-46
2022/01/28 02:38:16;;;;;;;19.05;2.53;;;;;;;5.21;69.93;101220.63;5021135;28;20406;-45
2022/01/28 02:40:47;;;;;;;16.30;3.28;;;;;;;5.22;70.18;101232.06;5023249;28;20075;-45
2022/01/28 02:46:04;;;;;;;12.13;2.60;;;;;;;5.20;69.76;101228.78;5021102;28;20034;-45
2022/01/28 02:48:31;;;;;;;12.43;2.25;;;;;;;5.19;69.94;101232.44;5022318;28;20045;-46
2022/01/28 02:51:30;;;;;;;23.00;3.55;;;;;;;5.11;69.41;101231.63;5020095;28;20427;-45
2022/01/28 02:53:55;;;;;;;13.52;2.75;;;;;;;5.13;69.71;101239.38;5018034;28;20029;-45
2022/01/28 02:56:31;;;;;;;15.52;2.90;;;;;;;5.16;69.75;101234.50;5021442;28;20013;-45
2022/01/28 02:58:58;;;;;;;20.65;2.95;;;;;;;5.09;69.51;101241.63;5022430;28;20033;-45
2022/01/28 03:01:24;;;;;;;16.70;2.95;;;;;;;5.15;70.15;101243.47;5015927;28;20033;-45
2022/01/28 03:03:50;;;;;;;9.13;2.55;;;;;;;5.07;69.73;101251.63;4997916;28;20033;-46
2022/01/28 03:06:18;;;;;;;13.98;3.08;;;;;;;5.10;69.66;101256.53;5015151;28;20017;-46
2022/01/28 03:08:52;;;;;;;11.93;2.55;;;;;;;5.12;69.64;101257.16;5014870;28;20109;-46
2022/01/28 03:16:15;;;;;;;17.13;2.83;;;;;;;5.07;69.24;101278.19;5016422;28;20038;-45
2022/01/28 03:19:13;;;;;;;15.15;3.40;;;;;;;5.07;69.56;101270.22;5019855;28;20072;-45
2022/01/28 03:23:55;;;;;;;12.05;2.90;;;;;;;5.09;69.57;101275.34;5017565;28;20037;-45
2022/01/28 03:26:22;;;;;;;14.45;2.47;;;;;;;5.09;70.23;101276.16;5016371;28;20018;-45
2022/01/28 03:28:48;;;;;;;12.95;2.45;;;;;;;5.03;69.74;101300.88;5015643;28;20036;-45
2022/01/28 03:31:13;;;;;;;15.55;3.42;;;;;;;5.06;69.75;101284.53;5015234;28;20026;-45
2022/01/28 03:33:39;;;;;;;17.05;2.85;;;;;;;5.10;69.81;101292.91;5019327;28;20112;-45
2022/01/28 03:36:08;;;;;;;15.98;2.50;;;;;;;5.13;69.54;101298.66;5016287;28;20021;-47
2022/01/28 03:38:34;;;;;;;12.55;2.92;;;;;;;5.12;69.46;101306.81;5016620;28;20473;-46
2022/01/28 03:40:59;;;;;;;15.90;5.22;;;;;;;5.03;69.12;101314.16;5016273;28;20035;-46
2022/01/28 03:43:25;;;;;;;14.88;3.15;;;;;;;5.02;69.36;101307.16;5017607;28;20078;-46
2022/01/28 03:45:50;;;;;;;17.50;2.88;;;;;;;5.01;69.36;101323.31;5001705;28;20108;-47
2022/01/28 03:48:16;;;;;;;15.27;3.05;;;;;;;4.92;69.40;101329.81;5015003;28;20037;-46
2022/01/28 03:50:41;;;;;;;19.83;3.97;;;;;;;4.88;69.71;101318.75;5017147;28;20399;-46
2022/01/28 03:53:08;;;;;;;13.70;2.72;;;;;;;4.89;69.84;101319.59;5014746;28;20053;-45
2022/01/28 03:55:35;;;;;;;18.90;3.20;;;;;;;4.93;69.65;101340.22;5015774;28;20018;-45
2022/01/28 03:58:01;;;;;;;16.00;3.10;;;;;;;4.96;69.96;101339.84;5016007;28;20074;-46
2022/01/28 04:00:30;;;;;;;10.55;2.42;;;;;;;4.88;70.00;101332.03;5016386;28;20057;-46
2022/01/28 04:03:10;;;;;;;18.80;3.03;;;;;;;4.89;69.86;101349.59;5001519;28;20037;-45
2022/01/28 04:13:35;;;;;;;13.75;2.80;;;;;;;4.89;70.05;101372.69;5018033;28;20098;-45
2022/01/28 04:18:41;;;;;;;21.50;3.55;;;;;;;4.84;69.87;101371.41;5016326;28;20037;-46
2022/01/28 04:21:06;;;;;;;11.98;2.78;;;;;;;4.83;69.77;101371.63;5014717;28;20453;-45
2022/01/28 04:23:32;;;;;;;14.13;3.03;;;;;;;4.87;70.05;101388.81;5017793;28;20609;-46
2022/01/28 04:25:57;;;;;;;14.98;2.95;;;;;;;4.89;69.97;101385.97;5015180;28;20197;-46
2022/01/28 04:28:23;;;;;;;14.85;2.92;;;;;;;4.82;70.03;101399.19;5016469;28;20439;-45
2022/01/28 04:30:48;;;;;;;16.65;2.70;;;;;;;4.87;70.15;101406.59;5016889;28;20022;-45
2022/01/28 04:33:13;;;;;;;13.07;2.60;;;;;;;4.83;69.92;101414.09;5015187;28;20035;-46
2022/01/28 04:35:39;;;;;;;18.80;2.63;;;;;;;4.87;70.18;101423.34;5016887;28;20064;-45
2022/01/28 04:40:52;;;;;;;16.55;2.92;;;;;;;4.84;70.53;101427.16;5018451;28;20025;-45
2022/01/28 04:43:21;;;;;;;13.25;4.00;;;;;;;4.83;70.26;101430.03;5018184;28;20033;-45
2022/01/28 04:45:59;;;;;;;13.40;2.40;;;;;;;4.89;70.36;101436.41;5016962;28;20595;-47
2022/01/28 05:28:10;;;;;;;19.63;3.10;;;;;;;4.63;70.98;101521.97;5014551;28;20402;-45
2022/01/28 05:30:36;;;;;;;18.65;3.10;;;;;;;4.63;71.56;101525.44;5016300;28;20033;-46
2022/01/28 05:33:02;;;;;;;18.70;3.67;;;;;;;4.61;71.28;101527.47;5015527;28;20193;-45
2022/01/28 05:35:27;;;;;;;16.58;3.20;;;;;;;4.63;71.18;101535.22;5016866;28;20168;-47
2022/01/28 05:37:53;;;;;;;12.65;2.85;;;;;;;4.57;71.07;101538.66;5016421;28;20025;-46
2022/01/28 05:40:18;;;;;;;13.02;2.85;;;;;;;4.58;71.61;101545.59;5017459;28;20111;-46
2022/01/28 05:42:44;;;;;;;16.60;3.13;;;;;;;4.53;71.88;101541.69;5014997;28;20032;-45
2022/01/28 05:45:09;;;;;;;18.27;2.78;;;;;;;4.49;71.48;101547.56;5013758;28;20676;-46
2022/01/28 05:47:36;;;;;;;16.25;2.80;;;;;;;4.48;71.81;101545.91;5013465;28;20034;-46
2022/01/28 05:50:03;;;;;;;15.27;3.08;;;;;;;4.45;72.04;101555.06;5010715;28;20122;-46
2022/01/28 05:52:31;;;;;;;15.95;2.92;;;;;;;4.46;71.59;101559.34;5015128;28;21059;-45
2022/01/28 05:54:56;;;;;;;16.83;3.35;;;;;;;4.40;71.78;101584.00;5014921;28;20108;-45
2022/01/28 05:57:22;;;;;;;19.77;3.42;;;;;;;4.40;71.73;101576.03;5015539;28;20117;-46
2022/01/28 05:59:48;;;;;;;20.23;2.88;;;;;;;4.39;71.71;101582.34;5019123;28;20108;-45
2022/01/28 06:02:13;;;;;;;15.20;2.63;;;;;;;4.30;72.05;101590.59;5018651;28;20044;-45
2022/01/28 06:04:39;;;;;;;8.95;2.80;;;;;;;4.28;72.00;101605.88;5018689;28;20028;-45
2022/01/28 06:07:05;;;;;;;17.75;3.90;;;;;;;4.25;72.58;101607.91;5018821;28;20041;-46
2022/01/28 06:09:30;;;;;;;15.60;2.78;;;;;;;4.30;72.07;101615.28;5020334;28;20094;-45
2022/01/28 06:11:55;;;;;;;15.52;2.47;;;;;;;4.32;72.07;101612.47;5015628;28;20025;-45
2022/01/28 06:14:21;;;;;;;18.45;3.63;;;;;;;4.27;71.95;101628.09;5018377;28;20659;-46
2022/01/28 06:16:46;;;;;;;14.85;3.15;;;;;;;4.28;72.24;101633.22;5020335;28;20446;-47
2022/01/28 06:19:12;;;;;;;15.60;2.70;;;;;;;4.27;72.10;101634.22;5015734;28;20038;-46
2022/01/28 06:21:38;;;;;;;17.35;2.55;;;;;;;4.19;72.59;101644.97;5018654;28;20021;-45
2022/01/28 06:24:03;;;;;;;17.05;2.80;;;;;;;4.16;72.69;101654.09;5017687;28;20250;-46
2022/01/28 06:26:29;;;;;;;18.88;3.53;;;;;;;4.19;72.50;101667.00;5017169;28;20026;-45
2022/01/28 06:28:54;;;;;;;13.30;2.35;;;;;;;4.23;72.30;101670.94;5019113;28;20479;-46
2022/01/28 06:31:20;;;;;;;14.45;3.08;;;;;;;4.18;72.16;101665.34;5019080;28;20036;-46
2022/01/28 06:33:45;;;;;;;17.45;2.78;;;;;;;4.15;72.40;101670.22;5019676;28;20164;-46
2022/01/28 06:36:11;;;;;;;22.40;3.42;;;;;;;4.22;72.27;101682.53;5016635;28;20730;-45
2022/01/28 06:38:36;;;;;;;13.90;3.20;;;;;;;4.17;72.57;101695.53;5017916;28;20105;-46
2022/01/28 06:41:02;;;;;;;18.67;3.40;;;;;;;4.23;72.05;101693.97;5016952;28;20034;-46
2022/01/28 06:43:27;;;;;;;13.82;3.03;;;;;;;4.24;72.61;101706.22;5015236;28;20029;-44
2022/01/28 06:45:53;;;;;;;13.15;3.72;;;;;;;4.22;72.41;101717.03;5015284;28;20112;-47
2022/01/28 06:48:19;;;;;;;19.42;3.67;;;;;;;4.23;72.58;101731.94;5018521;28;20087;-46
2022/01/28 06:50:45;;;;;;;20.58;3.97;;;;;;;4.25;72.06;101732.56;5002778;28;20034;-46
2022/01/28 06:53:13;;;;;;;15.35;2.65;;;;;;;4.22;72.36;101734.78;5016901;28;20026;-45
2022/01/28 06:55:40;;;;;;;19.90;3.28;;;;;;;4.25;71.95;101750.31;5015867;28;20017;-46
2022/01/28 06:58:10;;;;;;;22.17;3.60;;;;;;;4.25;71.95;101755.63;5015600;28;20067;-45
2022/01/28 07:00:37;;;;;;;10.57;2.55;;;;;;;4.24;72.09;101759.28;5018875;28;20380;-46
2022/01/28 07:03:11;;;;;;;10.60;2.50;;;;;;;4.23;72.38;101761.13;5016333;28;20036;-45
2022/01/28 07:05:37;;;;;;;16.75;3.08;;;;;;;4.24;72.12;101770.72;5017740;28;20327;-46
2022/01/28 07:08:04;;;;;;;15.65;2.85;;;;;;;4.13;71.92;101754.41;5014389;28;20205;-45
2022/01/28 07:10:29;;;;;;;17.65;3.42;;;;;;;4.20;72.09;101755.34;5019154;28;20091;-45
2022/01/28 07:12:55;;;;;;;13.30;2.40;;;;;;;4.14;71.91;101764.88;5020500;28;20025;-45
2022/01/28 07:15:24;;;;;;;16.05;2.72;;;;;;;4.19;71.97;101761.66;5020277;22;20060;-49
2022/01/28 07:17:54;;;;;;;21.27;3.25;;;;;;;4.10;72.31;101786.59;5008467;28;20042;-48
2022/01/28 07:20:20;;;;;;;10.18;2.78;;;;;;;4.09;72.32;101788.44;5007359;28;20083;-48
2022/01/28 07:22:46;;;;;;;13.38;2.17;;;;;;;4.10;72.41;101797.22;5000592;28;20033;-49
2022/01/28 07:25:11;;;;;;;19.40;2.65;;;;;;;4.10;72.38;101802.53;5001920;28;20041;-50
2022/01/28 07:27:37;;;;;;;19.55;4.43;;;;;;;4.07;72.45;101816.16;5002167;28;20049;-50
2022/01/28 07:30:04;;;;;;;20.27;2.90;;;;;;;4.12;72.51;101819.06;5003239;28;20038;-48
2022/01/28 07:32:29;;;;;;;11.02;3.63;;;;;;;4.12;72.32;101829.69;5004324;28;20021;-49
2022/01/28 07:34:55;;;;;;;17.00;2.58;;;;;;;4.00;72.71;101824.00;5002267;28;20091;-48
2022/01/28 07:37:20;;;;;;;18.35;3.15;;;;;;;4.01;72.85;101832.78;5004070;28;20029;-48
2022/01/28 07:39:46;;;;;;;15.00;3.38;;;;;;;3.98;72.69;101836.63;4997808;28;20036;-48
2022/01/28 07:42:11;;;;;;;11.55;2.42;;;;;;;4.02;73.11;101847.69;5001659;28;20034;-47
2022/01/28 07:44:37;;;;;;;15.52;2.35;;;;;;;4.03;72.65;101852.00;5002533;28;20414;-48
2022/01/28 07:47:03;;;;;;;20.13;2.80;;;;;;;3.99;72.63;101872.75;5004225;28;20045;-48
2022/01/28 07:49:29;;;;;;;18.67;3.25;;;;;;;4.07;72.64;101875.31;5004870;28;20021;-47
2022/01/28 07:51:54;;;;;;;12.70;2.70;;;;;;;4.05;72.75;101876.50;5003423;28;20029;-49
2022/01/28 07:54:20;;;;;;;16.27;2.63;;;;;;;4.10;72.82;101887.41;5003188;28;20052;-48
2022/01/28 07:56:47;;;;;;;11.02;2.60;;;;;;;4.05;72.74;101887.94;5002782;28;20053;-47
2022/01/28 07:59:13;;;;;;;16.48;2.95;;;;;;;4.15;72.48;101887.72;5003329;28;20044;-49
2022/01/28 08:01:38;;;;;;;13.25;2.80;;;;;;;4.22;72.57;101896.59;4999385;28;20025;-48
2022/01/28 08:04:04;;;;;;;18.35;2.80;;;;;;;4.22;72.21;101905.38;5002868;28;20029;-48
2022/01/28 08:06:30;;;;;;;14.73;3.60;;;;;;;4.29;72.52;101916.09;5002436;28;20045;-48
2022/01/28 08:08:58;;;;;;;21.80;3.22;;;;;;;4.36;71.93;101921.53;4999377;28;20034;-48
2022/01/28 08:11:24;;;;;;;10.98;2.38;;;;;;;4.38;71.82;101932.78;4996399;28;20112;-49
2022/01/28 08:13:49;;;;;;;16.85;2.90;;;;;;;4.34;71.96;101924.38;5000748;28;20526;-47
2022/01/28 08:16:15;;;;;;;14.93;2.47;;;;;;;4.46;72.07;101922.91;4999800;28;20084;-48
2022/01/28 08:18:41;;;;;;;17.75;3.15;;;;;;;4.52;72.27;101938.13;4995391;28;20518;-47
2022/01/28 08:21:06;;;;;;;11.90;2.60;;;;;;;4.57;71.74;101948.22;5000867;28;20033;-48
2022/01/28 08:23:32;;;;;;;16.77;3.60;;;;;;;4.62;71.69;101958.28;5002845;28;20503;-49
2022/01/28 08:25:58;;;;;;;14.63;3.40;;;;;;;4.65;71.30;101947.31;5004406;28;20054;-48
2022/01/28 08:28:23;;;;;;;13.23;2.53;;;;;;;4.68;70.87;101961.06;5002477;28;20403;-48
2022/01/28 08:30:49;;;;;;;12.05;2.40;;;;;;;4.75;70.89;101967.28;5001195;28;20048;-50
2022/01/28 08:33:15;;;;;;;17.73;3.83;;;;;;;4.81;71.04;101963.09;5003354;28;20133;-49
2022/01/28 08:35:41;;;;;;;10.63;3.05;;;;;;;4.84;70.79;101973.34;5000320;28;20257;-47
2022/01/28 08:38:24;;;;;;;12.88;2.92;;;;;;;4.84;70.40;101968.03;5003390;28;20038;-48
2022/01/28 08:40:52;;;;;;;10.77;2.63;;;;;;;4.87;70.50;101978.31;5000953;28;20040;-50
2022/01/28 08:43:17;;;;;;;13.88;3.13;;;;;;;4.94;70.19;101987.19;5000308;28;20224;-48
2022/01/28 08:45:43;;;;;;;15.82;2.72;;;;;;;5.03;70.27;101994.09;4999506;28;20637;-47
2022/01/28 08:48:08;;;;;;;13.50;2.58;;;;;;;5.01;70.05;101990.78;4995829;28;20088;-48
2022/01/28 08:50:34;;;;;;;18.17;3.50;;;;;;;5.07;70.02;101999.88;4999236;28;20479;-47
2022/01/28 08:52:59;;;;;;;12.27;2.40;;;;;;;5.12;70.06;102002.81;5001205;28;20472;-49
2022/01/28 08:55:25;;;;;;;10.18;2.10;;;;;;;5.21;69.85;102011.53;4996061;28;20704;-48
2022/01/28 08:57:53;;;;;;;15.38;2.25;;;;;;;5.20;69.51;102021.31;5000698;28;20025;-48
2022/01/28 09:00:19;;;;;;;10.38;2.20;;;;;;;5.10;68.72;102018.94;5000137;28;20030;-48
2022/01/28 09:02:45;;;;;;;12.70;2.33;;;;;;;5.29;69.13;102028.22;4998604;28;20431;-47
2022/01/28 09:05:10;;;;;;;12.65;2.28;;;;;;;5.34;69.13;102033.78;4997516;28;20112;-47
2022/01/28 09:07:36;;;;;;;14.48;3.25;;;;;;;5.41;69.48;102028.59;5000288;28;20163;-50
2022/01/28 09:10:10;;;;;;;12.23;2.67;;;;;;;5.45;69.19;102033.34;5000884;28;20025;-47
2022/01/28 09:12:46;;;;;;;11.35;2.40;;;;;;;5.46;68.70;102050.13;4998715;28;20088;-50
2022/01/28 09:15:13;;;;;;;12.10;2.95;;;;;;;5.55;68.71;102058.81;5002553;28;20131;-49
2022/01/28 09:17:39;;;;;;;7.85;1.92;;;;;;;5.63;68.38;102056.91;5002494;28;20029;-47
2022/01/28 09:20:06;;;;;;;14.25;2.70;;;;;;;5.64;67.96;102060.41;5004151;28;20315;-47
2022/01/28 09:22:31;;;;;;;13.00;2.33;;;;;;;5.60;67.46;102070.59;5002576;28;20049;-50
2022/01/28 09:24:57;;;;;;;16.17;2.88;;;;;;;5.68;67.84;102072.31;4999503;28;20110;-48
2022/01/28 09:27:22;;;;;;;11.75;3.25;;;;;;;5.69;68.00;102082.75;4996577;28;20029;-49
2022/01/28 09:29:48;;;;;;;12.80;2.53;;;;;;;5.67;67.75;102092.75;5000246;28;20465;-50
2022/01/28 09:32:16;;;;;;;12.80;2.35;;;;;;;5.74;68.16;102098.16;5003590;28;20037;-48
2022/01/28 09:34:43;;;;;;;14.05;3.40;;;;;;;5.86;68.04;102099.38;5005226;28;20021;-49
2022/01/28 09:37:09;;;;;;;15.32;2.63;;;;;;;5.92;67.64;102106.63;5004186;28;20302;-49
2022/01/28 09:39:39;;;;;;;15.02;2.63;;;;;;;5.93;67.67;102120.78;5006007;28;20037;-47
2022/01/28 09:42:11;;;;;;;21.20;2.60;;;;;;;5.91;67.01;102117.47;5003005;28;20034;-48
2022/01/28 09:44:38;;;;;;;10.07;2.80;;;;;;;5.96;67.25;102123.06;5003928;28;20491;-48
2022/01/28 09:47:05;;;;;;;10.63;2.15;;;;;;;6.01;67.09;102121.50;5001501;28;20049;-51
2022/01/28 09:49:31;;;;;;;12.57;3.55;;;;;;;6.03;67.27;102118.66;5001001;28;20252;-49
2022/01/28 09:51:58;;;;;;;7.22;1.90;;;;;;;6.09;66.88;102122.41;5002215;28;20121;-47
2022/01/28 09:54:24;;;;;;;13.32;2.70;;;;;;;6.14;66.82;102128.03;5001655;28;20026;-49
2022/01/28 09:56:50;;;;;;;9.52;2.15;;;;;;;6.12;66.83;102130.88;5002732;28;20030;-47
2022/01/28 09:59:16;;;;;;;12.98;2.67;;;;;;;6.17;67.19;102141.78;5001936;28;20040;-50
2022/01/28 10:01:51;;;;;;;10.55;2.30;;;;;;;6.17;66.38;102147.09;5000817;28;20025;-48
2022/01/28 10:04:18;;;;;;;9.52;2.47;;;;;;;6.18;66.50;102155.91;5001395;28;20022;-47
2022/01/28 10:06:45;;;;;;;9.65;1.98;;;;;;;6.25;67.13;102154.16;5004362;28;20029;-50
2022/01/28 10:09:14;;;;;;;13.80;2.38;;;;;;;6.23;66.45;102151.66;4998313;28;20026;-50
2022/01/28 10:11:43;;;;;;;13.98;2.40;;;;;;;6.29;66.22;102171.41;5004366;28;20076;-47
2022/01/28 10:14:16;;;;;;;9.13;1.77;;;;;;;6.36;66.69;102178.47;5002440;28;20509;-48
2022/01/28 10:16:42;;;;;;;11.77;1.80;;;;;;;6.35;66.34;102186.63;5004119;28;20037;-47
2022/01/28 10:19:09;;;;;;;7.18;1.80;;;;;;;6.34;65.76;102183.16;5000357;28;20030;-47
2022/01/28 10:21:39;;;;;;;6.05;1.48;;;;;;;6.36;65.99;102191.78;4999702;28;21006;-48
2022/01/28 10:24:18;;;;;;;11.25;2.20;;;;;;;6.35;65.52;102197.28;4999278;28;20053;-48
2022/01/28 10:26:54;;;;;;;13.30;2.10;;;;;;;6.42;65.64;102205.34;5003865;28;20260;-48
2022/01/28 10:29:30;;;;;;;10.40;2.05;;;;;;;6.49;66.09;102216.94;4997475;28;20069;-48
2022/01/28 10:32:03;;;;;;;10.60;2.30;;;;;;;6.41;64.78;102217.84;5002654;28;20116;-47
2022/01/28 10:34:43;;;;;;;7.15;1.45;;;;;;;6.36;65.16;102209.59;5005444;28;20474;-47
2022/01/28 10:37:29;;;;;;;11.00;2.28;;;;;;;6.34;65.70;102217.75;5003097;28;20030;-48
2022/01/28 10:40:01;;;;;;;9.27;1.60;;;;;;;6.32;65.94;102218.97;4998690;28;20121;-49
2022/01/28 10:42:41;;;;;;;8.32;1.77;;;;;;;6.31;65.57;102222.63;5002330;28;20041;-47
2022/01/28 10:45:13;;;;;;;7.55;1.73;;;;;;;6.27;66.15;102230.13;5002059;28;20121;-47
2022/01/28 10:47:47;;;;;;;8.57;2.22;;;;;;;6.23;65.83;102230.69;5005583;28;20109;-46
2022/01/28 10:50:31;;;;;;;11.32;2.22;;;;;;;6.25;66.20;102237.47;5003417;28;20061;-49
2022/01/28 10:53:05;;;;;;;10.38;1.65;;;;;;;6.18;65.96;102244.56;5001961;28;20518;-47
2022/01/28 10:55:33;;;;;;;9.68;1.98;;;;;;;6.22;65.90;102245.84;5004536;28;20022;-48
2022/01/28 10:58:02;;;;;;;10.00;2.00;;;;;;;6.28;66.14;102250.44;5006104;28;20061;-48
2022/01/28 11:00:30;;;;;;;9.38;2.15;;;;;;;6.19;66.14;102256.84;5005233;28;20430;-48
2022/01/28 11:02:59;;;;;;;12.18;1.83;;;;;;;6.20;66.43;102258.50;5004975;28;20033;-48
2022/01/28 11:05:28;;;;;;;12.27;1.98;;;;;;;6.14;66.75;102282.38;5000911;28;20014;-46
2022/01/28 11:07:54;;;;;;;12.05;1.52;;;;;;;6.14;66.67;102271.72;4996792;28;20738;-47
2022/01/28 11:10:20;;;;;;;5.47;1.50;;;;;;;6.11;66.42;102285.41;5000920;28;20025;-48
2022/01/28 11:12:45;;;;;;;8.38;1.58;;;;;;;6.14;66.48;102275.22;4999219;28;20572;-47
2022/01/28 11:15:12;;;;;;;10.50;2.33;;;;;;;6.12;66.41;102287.03;5002593;28;20061;-48
2022/01/28 11:17:38;;;;;;;4.88;1.35;;;;;;;6.09;66.59;102301.50;5003840;28;20049;-47
2022/01/28 11:20:05;;;;;;;13.30;2.42;;;;;;;6.01;66.41;102301.59;5002342;28;20081;-47
2022/01/28 11:22:43;;;;;;;12.85;2.30;;;;;;;6.03;66.76;102300.41;4999570;28;20030;-48
2022/01/28 11:25:28;;;;;;;5.57;1.50;;;;;;;6.03;66.72;102304.91;4998193;28;20416;-51
2022/01/28 11:27:53;;;;;;;7.13;1.33;;;;;;;5.95;66.43;102313.78;5003752;28;20044;-48
2022/01/28 11:30:27;;;;;;;12.00;1.63;;;;;;;6.01;66.83;102315.72;4999441;28;20034;-48
2022/01/28 11:33:08;;;;;;;9.73;2.03;;;;;;;6.00;66.31;102315.91;5004434;28;20233;-47
2022/01/28 11:35:46;;;;;;;8.73;2.08;;;;;;;6.04;67.02;102303.91;5014002;28;20113;-48
2022/01/28 11:38:30;;;;;;;10.05;2.25;;;;;;;6.00;66.77;102318.56;4997223;28;21592;-49
2022/01/28 11:41:05;;;;;;;7.20;1.25;;;;;;;6.11;66.80;102298.69;5004901;28;20034;-47
2022/01/28 11:43:32;;;;;;;7.85;1.60;;;;;;;6.28;66.48;102300.16;5000408;28;20699;-47
2022/01/28 11:46:16;;;;;;;8.18;1.85;;;;;;;6.41;65.78;102315.53;5002847;28;20069;-48
2022/01/28 11:49:02;;;;;;;9.18;1.52;;;;;;;6.58;65.82;102309.00;5005099;28;20113;-47
2022/01/28 11:51:33;;;;;;;7.38;1.50;;;;;;;6.80;64.76;102313.41;5002016;28;20033;-47
2022/01/28 11:54:01;;;;;;;7.70;1.80;;;;;;;7.01;63.96;102314.53;5001822;28;20030;-47
2022/01/28 11:56:28;;;;;;;9.27;2.03;;;;;;;7.22;63.75;102311.91;5002184;28;20029;-49
2022/01/28 11:59:08;;;;;;;5.25;1.80;;;;;;;7.39;62.23;102302.66;5004186;28;20140;-49
2022/01/28 12:01:36;;;;;;;6.40;1.30;;;;;;;7.52;61.85;102328.63;5003842;28;20040;-47
2022/01/28 12:04:23;;;;;;;7.70;1.77;;;;;;;7.71;60.10;102316.50;5003946;28;20245;-49
2022/01/28 12:06:55;;;;;;;7.65;1.05;;;;;;;7.96;60.63;102315.09;5003064;28;20052;-49
2022/01/28 12:09:22;;;;;;;3.65;1.02;;;;;;;8.24;59.92;102327.63;4997591;28;20382;-48
2022/01/28 12:11:48;;;;;;;1.33;0.70;;;;;;;8.37;59.50;102336.59;5002850;28;20109;-48
2022/01/28 12:14:14;;;;;;;2.80;1.00;;;;;;;8.43;57.21;102333.13;5003433;28;20112;-49
2022/01/28 12:16:46;;;;;;;3.70;1.15;;;;;;;8.60;57.95;102341.69;5003591;28;20034;-47
2022/01/28 12:19:22;;;;;;;5.70;0.93;;;;;;;8.69;56.32;102359.22;4996583;28;20045;-49
2022/01/28 12:22:10;;;;;;;4.72;1.85;;;;;;;8.79;55.26;102362.34;5000995;28;20427;-47
2022/01/28 12:24:37;;;;;;;7.00;1.27;;;;;;;8.81;55.18;102362.19;4998168;28;20099;-48
2022/01/28 12:27:05;;;;;;;2.15;0.68;;;;;;;8.85;53.93;102362.59;5000833;28;20281;-50
2022/01/28 12:29:56;;;;;;;4.15;0.90;;;;;;;8.95;55.17;102366.56;5002790;28;20025;-47
2022/01/28 12:32:23;;;;;;;4.32;0.80;;;;;;;9.08;54.66;102366.63;4999763;28;20044;-48
2022/01/28 12:34:49;;;;;;;5.45;1.02;;;;;;;9.09;53.54;102362.94;4999053;28;20030;-48
2022/01/28 12:37:20;;;;;;;2.20;0.70;;;;;;;9.10;53.31;102374.44;4995485;28;20084;-48
2022/01/28 12:39:55;;;;;;;3.53;0.90;;;;;;;9.20;53.15;102385.63;4997711;28;20052;-48
2022/01/28 12:42:23;;;;;;;1.98;0.75;;;;;;;9.31;51.57;102382.34;5000276;28;21326;-48
2022/01/28 12:44:54;;;;;;;2.83;0.90;;;;;;;9.39;51.10;102378.69;4997731;28;20419;-48
2022/01/28 12:47:20;;;;;;;1.48;0.65;;;;;;;9.57;51.86;102388.84;5000582;28;20030;-49
2022/01/28 12:49:56;;;;;;;2.70;0.50;;;;;;;9.52;49.34;102388.63;5000864;28;20093;-49
2022/01/28 12:52:22;;;;;;;2.08;0.90;;;;;;;9.51;50.53;102394.97;5000540;28;20056;-49
2022/01/28 12:54:49;;;;;;;5.65;0.82;;;;;;;9.67;50.04;102386.59;4999037;28;20472;-51
2022/01/28 12:57:19;;;;;;;4.72;1.02;;;;;;;9.68;49.14;102398.94;4997398;28;20112;-48
2022/01/28 12:59:47;;;;;;;2.83;1.08;;;;;;;9.68;49.68;102396.28;5002164;28;20029;-48
2022/01/28 13:02:14;;;;;;;1.25;0.85;;;;;;;9.74;49.59;102406.19;5000823;28;20330;-49
2022/01/28 13:05:32;;;;;;;1.95;0.75;;;;;;;9.71;48.10;102411.13;5003261;28;20025;-48
2022/01/28 13:10:39;;;;;;;1.98;1.00;;;;;;;9.64;46.77;102425.28;4977005;28;20092;-49
2022/01/28 13:13:07;;;;;;;3.85;1.00;;;;;;;9.59;49.14;102422.41;5007117;28;20104;-51
2022/01/28 13:15:33;;;;;;;2.25;0.68;;;;;;;9.25;49.34;102428.63;5021141;22;20135;-45